sensor_id;sensor_type;location;lat;lon;timestamp;temperature;humidity
6178;DHT22;3122;48.208;11.174;2023-02-12T00:03:41;1.70;1.00
6178;DHT22;3122;48.208;11.174;2023-02-12T00:08:42;1.70;1.00
6178;DHT22;3122;48.208;11.174;2023-02-12T00:13:43;1.70;1.00
6178;DHT22;3122;48.208;11.174;2023-02-12T00:18:44;1.70;1.00
6178;DHT22;3122;48.208;11.174;2023-02-12T00:23:45;1.60;1.00
6178;DHT22;3122;48.208;11.174;2023-02-12T00:28:45;1.70;1.00
6178;DHT22;3122;48.208;11.174;2023-02-12T00:33:46;1.70;1.00
6178;DHT22;3122;48.208;11.174;2023-02-12T00:38:49;1.80;1.00
6178;DHT22;3122;48.208;11.174;2023-02-12T00:43:50;1.80;1.00
6178;DHT22;3122;48.208;11.174;2023-02-12T00:48:51;1.80;1.00
6178;DHT22;3122;48.208;11.174;2023-02-12T00:53:52;1.80;1.00
6178;DHT22;3122;48.208;11.174;2023-02-12T00:58:52;1.80;1.00
6178;DHT22;3122;48.208;11.174;2023-02-12T01:03:53;1.70;1.00
6178;DHT22;3122;48.208;11.174;2023-02-12T01:08:53;1.80;1.00
6178;DHT22;3122;48.208;11.174;2023-02-12T01:13:54;2.00;1.00
6178;DHT22;3122;48.208;11.174;2023-02-12T01:18:55;2.00;1.00
6178;DHT22;3122;48.208;11.174;2023-02-12T01:23:57;2.10;1.00
6178;DHT22;3122;48.208;11.174;2023-02-12T01:29:00;2.10;1.00
6178;DHT22;3122;48.208;11.174;2023-02-12T01:34:01;2.10;1.00
6178;DHT22;3122;48.208;11.174;2023-02-12T01:39:04;2.00;1.00
6178;DHT22;3122;48.208;11.174;2023-02-12T01:44:28;1.90;1.00
6178;DHT22;3122;48.208;11.174;2023-02-12T01:49:40;1.70;1.00
6178;DHT22;3122;48.208;11.174;2023-02-12T01:54:43;1.70;1.00
6178;DHT22;3122;48.208;11.174;2023-02-12T01:59:45;1.80;1.00
6178;DHT22;3122;48.208;11.174;2023-02-12T02:04:50;1.80;1.00
6178;DHT22;3122;48.208;11.174;2023-02-12T02:09:53;1.80;1.00
6178;DHT22;3122;48.208;11.174;2023-02-12T02:14:57;1.90;1.00
6178;DHT22;3122;48.208;11.174;2023-02-12T02:20:34;1.90;1.00
6178;DHT22;3122;48.208;11.174;2023-02-12T02:31:15;1.80;1.00
6178;DHT22;3122;48.208;11.174;2023-02-12T02:36:43;1.80;1.00
6178;DHT22;3122;48.208;11.174;2023-02-12T02:42:22;1.90;1.00
6178;DHT22;3122;48.208;11.174;2023-02-12T02:47:21;2.00;1.00
6178;DHT22;3122;48.208;11.174;2023-02-12T02:52:39;1.80;1.00
6178;DHT22;3122;48.208;11.174;2023-02-12T02:57:49;1.90;1.00
6178;DHT22;3122;48.208;11.174;2023-02-12T03:02:55;1.80;1.00
6178;DHT22;3122;48.208;11.174;2023-02-12T03:08:17;1.70;1.00
6178;DHT22;3122;48.208;11.174;2023-02-12T03:13:35;1.70;1.00
6178;DHT22;3122;48.208;11.174;2023-02-12T03:18:51;1.70;1.00
6178;DHT22;3122;48.208;11.174;2023-02-12T03:24:01;1.70;1.00
6178;DHT22;3122;48.208;11.174;2023-02-12T03:29:02;1.60;1.00
6178;DHT22;3122;48.208;11.174;2023-02-12T03:39:35;1.60;1.00
6178;DHT22;3122;48.208;11.174;2023-02-12T03:45:00;1.60;1.00
6178;DHT22;3122;48.208;11.174;2023-02-12T03:50:27;1.60;1.00
6178;DHT22;3122;48.208;11.174;2023-02-12T03:55:31;1.70;1.00
6178;DHT22;3122;48.208;11.174;2023-02-12T04:00:33;1.80;1.00
6178;DHT22;3122;48.208;11.174;2023-02-12T04:05:34;1.70;1.00
6178;DHT22;3122;48.208;11.174;2023-02-12T04:27:04;1.70;1.00
6178;DHT22;3122;48.208;11.174;2023-02-12T04:32:17;1.70;1.00
6178;DHT22;3122;48.208;11.174;2023-02-12T04:37:35;1.70;1.00
6178;DHT22;3122;48.208;11.174;2023-02-12T04:42:45;1.80;1.00
6178;DHT22;3122;48.208;11.174;2023-02-12T04:47:47;1.90;1.00
6178;DHT22;3122;48.208;11.174;2023-02-12T04:52:47;1.80;1.00
6178;DHT22;3122;48.208;11.174;2023-02-12T04:57:48;1.70;1.00
6178;DHT22;3122;48.208;11.174;2023-02-12T05:02:49;1.70;1.00
6178;DHT22;3122;48.208;11.174;2023-02-12T05:07:49;1.70;1.00
6178;DHT22;3122;48.208;11.174;2023-02-12T05:12:53;1.80;1.00
6178;DHT22;3122;48.208;11.174;2023-02-12T05:17:54;1.80;1.00
6178;DHT22;3122;48.208;11.174;2023-02-12T05:22:55;2.00;1.00
6178;DHT22;3122;48.208;11.174;2023-02-12T05:27:55;1.90;1.00
6178;DHT22;3122;48.208;11.174;2023-02-12T05:32:56;1.80;1.00
6178;DHT22;3122;48.208;11.174;2023-02-12T05:37:57;1.70;1.00
6178;DHT22;3122;48.208;11.174;2023-02-12T05:42:57;1.60;1.00
6178;DHT22;3122;48.208;11.174;2023-02-12T05:47:58;1.60;1.00
6178;DHT22;3122;48.208;11.174;2023-02-12T05:53:02;1.60;1.00
6178;DHT22;3122;48.208;11.174;2023-02-12T05:58:02;1.60;1.00
6178;DHT22;3122;48.208;11.174;2023-02-12T06:03:03;1.60;1.00
6178;DHT22;3122;48.208;11.174;2023-02-12T06:08:03;1.60;1.00
6178;DHT22;3122;48.208;11.174;2023-02-12T06:13:04;1.60;1.00
6178;DHT22;3122;48.208;11.174;2023-02-12T06:18:04;1.70;1.00
6178;DHT22;3122;48.208;11.174;2023-02-12T06:23:05;1.60;1.00
6178;DHT22;3122;48.208;11.174;2023-02-12T06:28:06;1.60;1.00
6178;DHT22;3122;48.208;11.174;2023-02-12T06:33:06;1.70;1.00
6178;DHT22;3122;48.208;11.174;2023-02-12T06:38:07;1.60;1.00
6178;DHT22;3122;48.208;11.174;2023-02-12T06:43:08;1.60;1.00
6178;DHT22;3122;48.208;11.174;2023-02-12T06:48:09;1.60;1.00
6178;DHT22;3122;48.208;11.174;2023-02-12T06:53:10;1.60;1.00
6178;DHT22;3122;48.208;11.174;2023-02-12T06:58:10;1.60;1.00
6178;DHT22;3122;48.208;11.174;2023-02-12T07:03:11;1.60;1.00
6178;DHT22;3122;48.208;11.174;2023-02-12T07:08:11;1.60;1.00
6178;DHT22;3122;48.208;11.174;2023-02-12T07:13:12;1.60;1.00
6178;DHT22;3122;48.208;11.174;2023-02-12T07:18:12;1.60;1.00
6178;DHT22;3122;48.208;11.174;2023-02-12T07:23:13;1.60;1.00
6178;DHT22;3122;48.208;11.174;2023-02-12T07:28:13;1.70;1.00
6178;DHT22;3122;48.208;11.174;2023-02-12T07:33:14;1.70;1.00
6178;DHT22;3122;48.208;11.174;2023-02-12T07:38:14;1.80;1.00
6178;DHT22;3122;48.208;11.174;2023-02-12T07:43:15;1.80;1.00
6178;DHT22;3122;48.208;11.174;2023-02-12T07:48:15;1.90;1.00
6178;DHT22;3122;48.208;11.174;2023-02-12T07:53:16;2.00;1.00
6178;DHT22;3122;48.208;11.174;2023-02-12T07:58:17;2.10;1.00
6178;DHT22;3122;48.208;11.174;2023-02-12T08:03:17;2.30;1.00
6178;DHT22;3122;48.208;11.174;2023-02-12T08:08:18;2.30;1.00
6178;DHT22;3122;48.208;11.174;2023-02-12T08:13:18;2.20;1.00
6178;DHT22;3122;48.208;11.174;2023-02-12T08:18:19;2.20;1.00
6178;DHT22;3122;48.208;11.174;2023-02-12T08:23:19;2.30;1.00
6178;DHT22;3122;48.208;11.174;2023-02-12T08:28:20;2.30;1.00
6178;DHT22;3122;48.208;11.174;2023-02-12T08:33:22;2.40;1.00
6178;DHT22;3122;48.208;11.174;2023-02-12T08:38:22;2.60;1.00
6178;DHT22;3122;48.208;11.174;2023-02-12T08:43:23;2.70;1.00
6178;DHT22;3122;48.208;11.174;2023-02-12T08:48:24;2.80;1.00
6178;DHT22;3122;48.208;11.174;2023-02-12T08:53:24;2.80;1.00
6178;DHT22;3122;48.208;11.174;2023-02-12T08:58:25;3.00;1.00
6178;DHT22;3122;48.208;11.174;2023-02-12T09:03:25;3.10;1.00
6178;DHT22;3122;48.208;11.174;2023-02-12T09:08:26;3.30;1.00
6178;DHT22;3122;48.208;11.174;2023-02-12T09:13:26;3.50;1.00
6178;DHT22;3122;48.208;11.174;2023-02-12T09:18:27;3.60;1.00
6178;DHT22;3122;48.208;11.174;2023-02-12T09:23:28;3.70;1.00
6178;DHT22;3122;48.208;11.174;2023-02-12T09:28:29;3.70;1.00
6178;DHT22;3122;48.208;11.174;2023-02-12T09:33:30;3.80;1.00
6178;DHT22;3122;48.208;11.174;2023-02-12T09:38:31;3.90;1.00
6178;DHT22;3122;48.208;11.174;2023-02-12T09:43:47;3.90;1.00
6178;DHT22;3122;48.208;11.174;2023-02-12T09:49:09;4.00;1.00
6178;DHT22;3122;48.208;11.174;2023-02-12T09:59:34;4.30;1.00
6178;DHT22;3122;48.208;11.174;2023-02-12T10:04:35;4.30;1.00
6178;DHT22;3122;48.208;11.174;2023-02-12T10:20:31;4.70;1.00
6178;DHT22;3122;48.208;11.174;2023-02-12T10:25:57;4.80;1.00
6178;DHT22;3122;48.208;11.174;2023-02-12T10:30:59;4.80;1.00
6178;DHT22;3122;48.208;11.174;2023-02-12T10:41:36;4.90;1.00
6178;DHT22;3122;48.208;11.174;2023-02-12T10:46:38;4.90;1.00
6178;DHT22;3122;48.208;11.174;2023-02-12T10:57:24;5.00;1.00
6178;DHT22;3122;48.208;11.174;2023-02-12T11:02:31;4.90;1.00
6178;DHT22;3122;48.208;11.174;2023-02-12T11:07:46;5.00;1.00
6178;DHT22;3122;48.208;11.174;2023-02-12T11:12:47;4.90;1.00
6178;DHT22;3122;48.208;11.174;2023-02-12T11:18:03;4.90;1.00
6178;DHT22;3122;48.208;11.174;2023-02-12T11:23:06;5.10;1.00
6178;DHT22;3122;48.208;11.174;2023-02-12T11:28:21;5.20;1.00
6178;DHT22;3122;48.208;11.174;2023-02-12T11:33:32;5.20;1.00
6178;DHT22;3122;48.208;11.174;2023-02-12T11:38:36;5.20;1.00
6178;DHT22;3122;48.208;11.174;2023-02-12T11:43:38;5.30;1.00
6178;DHT22;3122;48.208;11.174;2023-02-12T11:48:39;5.40;1.00
6178;DHT22;3122;48.208;11.174;2023-02-12T11:53:42;5.50;1.00
6178;DHT22;3122;48.208;11.174;2023-02-12T11:58:47;5.40;1.00
6178;DHT22;3122;48.208;11.174;2023-02-12T12:09:24;5.60;1.00
6178;DHT22;3122;48.208;11.174;2023-02-12T12:14:34;5.60;1.00
6178;DHT22;3122;48.208;11.174;2023-02-12T12:20:08;5.80;1.00
6178;DHT22;3122;48.208;11.174;2023-02-12T12:30:26;6.00;1.00
6178;DHT22;3122;48.208;11.174;2023-02-12T12:36:20;6.10;1.00
6178;DHT22;3122;48.208;11.174;2023-02-12T12:41:26;6.30;1.00
6178;DHT22;3122;48.208;11.174;2023-02-12T12:57:45;6.10;1.00
6178;DHT22;3122;48.208;11.174;2023-02-12T13:13:39;5.90;1.00
6178;DHT22;3122;48.208;11.174;2023-02-12T13:29:39;6.30;1.00
6178;DHT22;3122;48.208;11.174;2023-02-12T13:34:42;6.40;1.00
6178;DHT22;3122;48.208;11.174;2023-02-12T13:39:47;6.30;1.00
6178;DHT22;3122;48.208;11.174;2023-02-12T13:55:48;6.40;1.00
6178;DHT22;3122;48.208;11.174;2023-02-12T14:06:16;6.40;1.00
6178;DHT22;3122;48.208;11.174;2023-02-12T14:11:20;6.20;1.00
6178;DHT22;3122;48.208;11.174;2023-02-12T14:26:35;6.00;1.00
6178;DHT22;3122;48.208;11.174;2023-02-12T14:31:38;6.10;1.00
6178;DHT22;3122;48.208;11.174;2023-02-12T14:36:41;6.00;1.00
6178;DHT22;3122;48.208;11.174;2023-02-12T14:41:43;6.10;1.00
6178;DHT22;3122;48.208;11.174;2023-02-12T14:46:55;6.20;1.00
6178;DHT22;3122;48.208;11.174;2023-02-12T14:52:12;6.20;1.00
6178;DHT22;3122;48.208;11.174;2023-02-12T14:57:35;6.00;1.00
6178;DHT22;3122;48.208;11.174;2023-02-12T15:02:39;5.70;1.00
6178;DHT22;3122;48.208;11.174;2023-02-12T15:07:43;5.70;1.00
6178;DHT22;3122;48.208;11.174;2023-02-12T15:12:53;5.70;1.00
6178;DHT22;3122;48.208;11.174;2023-02-12T15:18:17;5.60;1.00
6178;DHT22;3122;48.208;11.174;2023-02-12T15:23:38;5.50;1.00
6178;DHT22;3122;48.208;11.174;2023-02-12T15:28:39;5.50;1.00
6178;DHT22;3122;48.208;11.174;2023-02-12T15:33:48;5.50;1.00
6178;DHT22;3122;48.208;11.174;2023-02-12T15:39:06;5.30;1.00
6178;DHT22;3122;48.208;11.174;2023-02-12T15:44:28;5.30;1.00
6178;DHT22;3122;48.208;11.174;2023-02-12T15:49:37;5.20;1.00
6178;DHT22;3122;48.208;11.174;2023-02-12T15:54:38;5.10;1.00
6178;DHT22;3122;48.208;11.174;2023-02-12T15:59:40;4.90;1.00
6178;DHT22;3122;48.208;11.174;2023-02-12T16:04:40;4.80;1.00
6178;DHT22;3122;48.208;11.174;2023-02-12T16:09:44;4.70;1.00
6178;DHT22;3122;48.208;11.174;2023-02-12T16:14:56;4.60;1.00
6178;DHT22;3122;48.208;11.174;2023-02-12T16:25:29;4.50;1.00
6178;DHT22;3122;48.208;11.174;2023-02-12T16:30:32;4.30;1.00
6178;DHT22;3122;48.208;11.174;2023-02-12T16:35:34;4.20;1.00
6178;DHT22;3122;48.208;11.174;2023-02-12T16:40:35;4.00;1.00
6178;DHT22;3122;48.208;11.174;2023-02-12T16:45:37;4.00;1.00
6178;DHT22;3122;48.208;11.174;2023-02-12T16:51:05;3.80;1.00
6178;DHT22;3122;48.208;11.174;2023-02-12T16:56:20;3.60;1.00
6178;DHT22;3122;48.208;11.174;2023-02-12T17:01:33;3.40;1.00
6178;DHT22;3122;48.208;11.174;2023-02-12T17:06:34;3.30;1.00
6178;DHT22;3122;48.208;11.174;2023-02-12T17:11:35;3.20;1.00
6178;DHT22;3122;48.208;11.174;2023-02-12T17:16:35;3.00;1.00
6178;DHT22;3122;48.208;11.174;2023-02-12T17:21:38;3.00;1.00
6178;DHT22;3122;48.208;11.174;2023-02-12T17:26:40;3.00;1.00
6178;DHT22;3122;48.208;11.174;2023-02-12T17:31:40;2.90;1.00
6178;DHT22;3122;48.208;11.174;2023-02-12T17:36:41;2.90;1.00
6178;DHT22;3122;48.208;11.174;2023-02-12T17:41:42;2.70;1.00
6178;DHT22;3122;48.208;11.174;2023-02-12T17:46:43;2.70;1.00
6178;DHT22;3122;48.208;11.174;2023-02-12T17:51:44;2.60;1.00
6178;DHT22;3122;48.208;11.174;2023-02-12T17:56:45;2.50;1.00
6178;DHT22;3122;48.208;11.174;2023-02-12T18:01:45;2.50;1.00
6178;DHT22;3122;48.208;11.174;2023-02-12T18:06:46;2.30;1.00
6178;DHT22;3122;48.208;11.174;2023-02-12T18:11:46;2.20;1.00
6178;DHT22;3122;48.208;11.174;2023-02-12T18:16:47;2.20;1.00
6178;DHT22;3122;48.208;11.174;2023-02-12T18:21:48;2.20;1.00
6178;DHT22;3122;48.208;11.174;2023-02-12T18:26:49;2.20;1.00
6178;DHT22;3122;48.208;11.174;2023-02-12T18:31:49;2.10;1.00
6178;DHT22;3122;48.208;11.174;2023-02-12T18:36:50;2.10;1.00
6178;DHT22;3122;48.208;11.174;2023-02-12T18:41:51;2.00;1.00
6178;DHT22;3122;48.208;11.174;2023-02-12T18:46:51;2.00;1.00
6178;DHT22;3122;48.208;11.174;2023-02-12T18:51:52;1.90;1.00
6178;DHT22;3122;48.208;11.174;2023-02-12T18:56:53;1.80;1.00
6178;DHT22;3122;48.208;11.174;2023-02-12T19:01:54;1.80;1.00
6178;DHT22;3122;48.208;11.174;2023-02-12T19:06:55;1.80;1.00
6178;DHT22;3122;48.208;11.174;2023-02-12T19:11:57;1.80;1.00
6178;DHT22;3122;48.208;11.174;2023-02-12T19:16:58;1.80;1.00
6178;DHT22;3122;48.208;11.174;2023-02-12T19:21:59;1.70;1.00
6178;DHT22;3122;48.208;11.174;2023-02-12T19:26:59;1.60;1.00
6178;DHT22;3122;48.208;11.174;2023-02-12T19:32:00;1.50;1.00
6178;DHT22;3122;48.208;11.174;2023-02-12T19:37:01;1.50;1.00
6178;DHT22;3122;48.208;11.174;2023-02-12T19:42:01;1.40;1.00
6178;DHT22;3122;48.208;11.174;2023-02-12T19:47:02;1.40;1.00
6178;DHT22;3122;48.208;11.174;2023-02-12T19:52:03;1.30;1.00
6178;DHT22;3122;48.208;11.174;2023-02-12T19:57:03;1.30;1.00
6178;DHT22;3122;48.208;11.174;2023-02-12T20:02:08;1.40;1.00
6178;DHT22;3122;48.208;11.174;2023-02-12T20:07:09;1.50;1.00
6178;DHT22;3122;48.208;11.174;2023-02-12T20:12:10;1.40;1.00
6178;DHT22;3122;48.208;11.174;2023-02-12T20:17:10;1.40;1.00
6178;DHT22;3122;48.208;11.174;2023-02-12T20:22:11;1.30;1.00
6178;DHT22;3122;48.208;11.174;2023-02-12T20:27:11;1.30;1.00
6178;DHT22;3122;48.208;11.174;2023-02-12T20:32:12;1.30;1.00
6178;DHT22;3122;48.208;11.174;2023-02-12T20:37:12;1.40;1.00
6178;DHT22;3122;48.208;11.174;2023-02-12T20:42:13;1.40;1.00
6178;DHT22;3122;48.208;11.174;2023-02-12T20:47:14;1.30;1.00
6178;DHT22;3122;48.208;11.174;2023-02-12T20:52:14;1.30;1.00
6178;DHT22;3122;48.208;11.174;2023-02-12T20:57:15;1.20;1.00
6178;DHT22;3122;48.208;11.174;2023-02-12T21:02:16;1.10;1.00
6178;DHT22;3122;48.208;11.174;2023-02-12T21:07:17;1.00;1.00
6178;DHT22;3122;48.208;11.174;2023-02-12T21:12:18;1.00;1.00
6178;DHT22;3122;48.208;11.174;2023-02-12T21:17:19;1.00;1.00
6178;DHT22;3122;48.208;11.174;2023-02-12T21:22:19;1.00;1.00
6178;DHT22;3122;48.208;11.174;2023-02-12T21:27:20;0.80;1.00
6178;DHT22;3122;48.208;11.174;2023-02-12T21:32:21;0.80;1.00
6178;DHT22;3122;48.208;11.174;2023-02-12T21:37:21;0.70;1.00
6178;DHT22;3122;48.208;11.174;2023-02-12T21:42:22;0.80;1.00
6178;DHT22;3122;48.208;11.174;2023-02-12T21:47:23;0.80;1.00
6178;DHT22;3122;48.208;11.174;2023-02-12T21:52:23;0.90;1.00
6178;DHT22;3122;48.208;11.174;2023-02-12T21:57:24;1.00;1.00
6178;DHT22;3122;48.208;11.174;2023-02-12T22:02:24;0.90;1.00
6178;DHT22;3122;48.208;11.174;2023-02-12T22:07:25;0.80;1.00
6178;DHT22;3122;48.208;11.174;2023-02-12T22:12:25;0.90;1.20
6178;DHT22;3122;48.208;11.174;2023-02-12T22:17:30;0.90;1.20
6178;DHT22;3122;48.208;11.174;2023-02-12T22:22:32;1.00;2.10
6178;DHT22;3122;48.208;11.174;2023-02-12T22:27:33;0.90;2.20
6178;DHT22;3122;48.208;11.174;2023-02-12T22:32:33;1.00;3.20
6178;DHT22;3122;48.208;11.174;2023-02-12T22:37:34;1.00;2.70
6178;DHT22;3122;48.208;11.174;2023-02-12T22:42:35;0.90;3.30
6178;DHT22;3122;48.208;11.174;2023-02-12T22:47:35;0.90;3.50
6178;DHT22;3122;48.208;11.174;2023-02-12T22:52:36;0.90;5.10
6178;DHT22;3122;48.208;11.174;2023-02-12T22:57:37;0.80;5.00
6178;DHT22;3122;48.208;11.174;2023-02-12T23:02:37;0.80;5.90
6178;DHT22;3122;48.208;11.174;2023-02-12T23:07:38;0.80;6.00
6178;DHT22;3122;48.208;11.174;2023-02-12T23:12:38;0.80;6.10
6178;DHT22;3122;48.208;11.174;2023-02-12T23:17:39;0.80;7.20
6178;DHT22;3122;48.208;11.174;2023-02-12T23:22:39;0.90;7.50
6178;DHT22;3122;48.208;11.174;2023-02-12T23:27:40;0.90;8.30
6178;DHT22;3122;48.208;11.174;2023-02-12T23:32:40;0.90;10.40
6178;DHT22;3122;48.208;11.174;2023-02-12T23:37:41;0.80;45.30
6178;DHT22;3122;48.208;11.174;2023-02-12T23:42:41;0.80;27.80
6178;DHT22;3122;48.208;11.174;2023-02-12T23:47:42;0.80;11.10
6178;DHT22;3122;48.208;11.174;2023-02-12T23:52:43;0.80;8.70
6178;DHT22;3122;48.208;11.174;2023-02-12T23:57:43;0.80;10.60
